This is the latest recevied weather packets stored in our database for station/object F4MZI-13. If no packets are shown the sender has not sent any weather packets the latest 10 day(s).
| Time | Temp. | Humidity | Pressure | Rain* | Wind** | Luminosity | Snow |
|---|---|---|---|---|---|---|---|
| 1788695895 | 26.67° C | 46% | 1023 hPa | 0 mm | - | - | - |
| 1788695295 | 23.33° C | 60% | 1023 hPa | 0 mm | - | - | - |
| 1788694695 | 23.33° C | 60% | 1023 hPa | 0 mm | - | - | - |
| 1788694095 | 23.33° C | 60% | 1023 hPa | 0 mm | - | - | - |
| 1788693494 | 23.33° C | 60% | 1023 hPa | 0 mm | - | - | - |
| 1788692894 | 23.33° C | 60% | 1023 hPa | 0 mm | - | - | - |
| 1788692294 | 23.33° C | 60% | 1023 hPa | 0 mm | - | - | - |
| 1788691694 | 22.78° C | 50% | 1023 hPa | 0 mm | - | - | - |
| 1788691094 | 22.78° C | 50% | 1023 hPa | 0 mm | - | - | - |
| 1788690493 | 21.11° C | 56% | 1024 hPa | 0 mm | - | - | - |
| 1788689893 | 21.11° C | 56% | 1024 hPa | 0 mm | - | - | - |
| 1788689293 | 21.11° C | 56% | 1024 hPa | 0 mm | - | - | - |
| 1788688693 | 21.11° C | 56% | 1024 hPa | 0 mm | - | - | - |
| 1788688093 | 21.11° C | 56% | 1024 hPa | 0 mm | - | - | - |
| 1788687493 | 21.11° C | 56% | 1024 hPa | 0 mm | - | - | - |
| 1788686892 | 18.89° C | 64% | 1025 hPa | 0 mm | - | - | - |
| 1788686292 | 18.89° C | 64% | 1025 hPa | 0 mm | - | - | - |
| 1788685692 | 18.89° C | 64% | 1025 hPa | 0 mm | - | - | - |
| 1788685092 | 18.89° C | 64% | 1025 hPa | 0 mm | - | - | - |
| 1788684492 | 18.89° C | 64% | 1025 hPa | 0 mm | - | - | - |
| 1788683892 | 18.89° C | 64% | 1025 hPa | 0 mm | - | - | - |
| 1788683291 | 15.56° C | 73% | 1025 hPa | 0 mm | - | - | - |
| 1788682691 | 15.56° C | 73% | 1025 hPa | 0 mm | - | - | - |
| 1788682091 | 15.56° C | 73% | 1025 hPa | 0 mm | - | - | - |
| 1788681491 | 15.56° C | 73% | 1025 hPa | 0 mm | - | - | - |
* Rain latest hour (hover to see other rain measurements)
** Current wind speed in m/s (hover to see current wind gust speed)